Alva Dupre — WDG3104 — position and weather

sailwx.info

Track history (hours):
 
Tides and Currents Weather Stations Pressure Air Temp Water Temp Dewpoint Dewpoint Depression Visibility Wind Speed Wind Dir Waves Ship Positions

Alva Dupre

Owner: Dupre Marine Transportation Inc, Houma, LA. More information available from US FCC via Universal Licensing System and Coast Guard Vessel Documentation Center.

Last reported at 2018-Feb-20 12:43 UTC. Time now 2018-Feb-21 19:36 UTC.
Position N 28°54' W 095°24'.

Length 23 m; draft 3.2 m.

Type: . MMSI: 367522540.

Date/timePositionNaut miles runAvg speedWind from/ knotsBaromVisibWave heightAir tempDewpointWater temp
2018-Feb-20 12:43N 28°54' W 095°24'35 2.1
2018-Feb-19 20:26N 29°17' W 094°54'10 4.6
2018-Feb-19 18:18N 29°23' W 094°46'1 1.1
2018-Feb-19 17:31N 29°24' W 094°45'0 2.9
2018-Feb-19 17:25N 29°24' W 094°45'1 2.6
2018-Feb-19 16:58N 29°25' W 094°44'2 4.6
2018-Feb-19 16:30N 29°26' W 094°42'1 2.7
2018-Feb-19 16:00N 29°27' W 094°41'2 3.9
2018-Feb-19 15:30N 29°28' W 094°39'2 3.9
2018-Feb-19 14:53N 29°29' W 094°36'2 3.9
2018-Feb-19 14:30N 29°30' W 094°35'2 3.8
2018-Feb-19 14:00N 29°30' W 094°33'2 3.9
2018-Feb-19 13:30N 29°31' W 094°31'2 0.7
2018-Feb-19 10:34N 29°32' W 094°29'0 0.0
2018-Feb-19 10:16N 29°32' W 094°29'0 0.0
2018-Feb-19 09:55N 29°32' W 094°29'0 0.0
2018-Feb-19 09:28N 29°32' W 094°29'0 0.0
2018-Feb-19 08:13N 29°32' W 094°29'0 0.0
2018-Feb-19 07:58N 29°32' W 094°29'0 0.0
2018-Feb-19 07:25N 29°32' W 094°29'0 0.0
2018-Feb-18 20:37N 29°33' W 094°28'1 4.0
2018-Feb-18 20:27N 29°33' W 094°28'3 3.6
2018-Feb-18 19:42N 29°34' W 094°25'1 4.6
2018-Feb-18 19:24N 29°35' W 094°25'2 3.3
2018-Feb-18 18:56N 29°36' W 094°23'1 2.1
2018-Feb-18 18:25N 29°36' W 094°22'0 0.0
2018-Feb-18 17:57N 29°36' W 094°22'0 0.1
2018-Feb-18 17:30N 29°36' W 094°22'0 0.0
2018-Feb-18 13:27N 29°36' W 094°22'0 0.0
2018-Feb-18 11:42N 29°36' W 094°22'0 0.0
2018-Feb-18 11:24N 29°36' W 094°22'0 0.0
2018-Feb-18 11:00N 29°36' W 094°22'0 0.0
2018-Feb-18 10:24N 29°36' W 094°22'0 0.0
2018-Feb-18 09:39N 29°36' W 094°22'0 0.0
2018-Feb-18 09:21N 29°36' W 094°22'0 0.0
2018-Feb-18 08:54N 29°36' W 094°22'0 0.0
2018-Feb-18 08:24N 29°36' W 094°22'0 0.1
2018-Feb-18 02:26N 29°36' W 094°22'0 0.0
2018-Feb-18 01:53N 29°36' W 094°22'0 0.0
2018-Feb-18 01:29N 29°36' W 094°22'0 0.0
2018-Feb-18 00:56N 29°36' W 094°22'0 0.0
2018-Feb-18 00:29N 29°36' W 094°22'0 0.1
2018-Feb-17 23:41N 29°36' W 094°22'0 0.1
2018-Feb-17 23:23N 29°36' W 094°22'0 0.1
2018-Feb-17 22:59N 29°36' W 094°22'0 0.0
2018-Feb-17 22:29N 29°36' W 094°22'0 0.4
2018-Feb-17 21:59N 29°37' W 094°22'2 4.1
2018-Feb-17 21:30N 29°37' W 094°20'2 4.9
2018-Feb-17 21:00N 29°39' W 094°17'2 4.8
2018-Feb-17 20:30N 29°40' W 094°15'2 4.7
2018-Feb-17 20:00N 29°41' W 094°12'2 3.7
2018-Feb-17 19:29N 29°41' W 094°10'1 2.5
2018-Feb-17 19:00N 29°42' W 094°09'2 4.1
2018-Feb-17 18:30N 29°43' W 094°07'2 4.3
2018-Feb-17 18:01N 29°44' W 094°05'2 4.3
2018-Feb-17 17:31N 29°46' W 094°03'2 4.4
2018-Feb-17 17:00N 29°47' W 094°01'2 4.4
2018-Feb-17 16:30N 29°49' W 093°60'1 2.7
2018-Feb-17 15:58N 29°49' W 093°58'0 0.0
2018-Feb-17 15:28N 29°49' W 093°58'0 0.0
2018-Feb-17 14:58N 29°49' W 093°58'0 0.0
2018-Feb-17 14:28N 29°49' W 093°58'0 0.0
2018-Feb-17 13:58N 29°49' W 093°58'0 0.0
2018-Feb-17 13:28N 29°49' W 093°58'0 0.0
2018-Feb-17 12:58N 29°49' W 093°58'0 0.0
2018-Feb-17 12:28N 29°49' W 093°58'0 0.0
2018-Feb-17 11:58N 29°49' W 093°58'0 0.0
2018-Feb-17 11:28N 29°49' W 093°58'0 0.0
2018-Feb-17 10:58N 29°49' W 093°58'0 0.0
2018-Feb-17 10:28N 29°49' W 093°58'0 0.0
2018-Feb-17 09:58N 29°49' W 093°58'0 0.0
2018-Feb-17 09:28N 29°49' W 093°58'0 0.0
2018-Feb-17 08:58N 29°49' W 093°58'0 0.0
2018-Feb-17 08:28N 29°49' W 093°58'0 0.0
2018-Feb-17 07:58N 29°49' W 093°58'0 0.0
2018-Feb-17 07:28N 29°49' W 093°58'0 0.0
2018-Feb-17 06:58N 29°49' W 093°58'0 0.0
2018-Feb-17 06:28N 29°49' W 093°58'0 0.0
2018-Feb-17 05:58N 29°49' W 093°58'0 0.0
2018-Feb-17 05:28N 29°49' W 093°58'0 0.0
2018-Feb-17 04:58N 29°49' W 093°58'0 0.0
2018-Feb-17 04:28N 29°49' W 093°58'0 0.0
2018-Feb-17 03:58N 29°49' W 093°58'0 0.0
2018-Feb-17 03:28N 29°49' W 093°58'0 0.0
2018-Feb-17 02:58N 29°49' W 093°58'0 0.0
2018-Feb-17 02:28N 29°49' W 093°58'0 0.0
2018-Feb-17 01:58N 29°49' W 093°58'0 0.7
2018-Feb-17 01:30N 29°49' W 093°58'2 4.5
2018-Feb-17 01:00N 29°51' W 093°57'3 6.5
2018-Feb-17 00:30N 29°54' W 093°54'3 6.3
2018-Feb-17 00:00N 29°56' W 093°52'2 4.3
2018-Feb-16 23:30N 29°58' W 093°51'3 5.8
2018-Feb-16 23:00N 29°59' W 093°48'3 5.6
2018-Feb-16 22:30N 30°01' W 093°45'3 5.5
2018-Feb-16 22:00N 30°03' W 093°43'3 5.1
2018-Feb-16 21:30N 30°04' W 093°40'3 5.4
2018-Feb-16 21:00N 30°04' W 093°37'2 4.7
2018-Feb-16 20:30N 30°04' W 093°34'2 4.4
2018-Feb-16 20:00N 30°04' W 093°32'2 4.4
2018-Feb-16 19:30N 30°04' W 093°29'2 4.5
2018-Feb-16 19:00N 30°04' W 093°27'2 4.3
2018-Feb-16 18:30N 30°04' W 093°24'2 4.1
2018-Feb-16 18:00N 30°04' W 093°22'1 1.5
2018-Feb-16 17:29N 30°04' W 093°21'0 0.7
2018-Feb-16 17:00N 30°04' W 093°21'2 3.3
2018-Feb-16 16:30N 30°05' W 093°20'2 5.0
2018-Feb-16 16:00N 30°08' W 093°20'3 4.7
2018-Feb-16 15:28N 30°10' W 093°19'0 0.6
2018-Feb-16 14:58N 30°11' W 093°19'0 0.0
2018-Feb-16 14:28N 30°11' W 093°19'0 0.0
2018-Feb-16 13:59N 30°11' W 093°19'0 0.0
2018-Feb-16 13:29N 30°11' W 093°19'0 0.0
2018-Feb-16 12:59N 30°11' W 093°19'0 0.0
2018-Feb-16 12:29N 30°11' W 093°19'0 0.0
2018-Feb-16 11:59N 30°11' W 093°19'0 0.0
2018-Feb-16 11:29N 30°11' W 093°19'0 0.0
2018-Feb-16 10:59N 30°11' W 093°19'0 0.0
2018-Feb-16 10:29N 30°11' W 093°19'0 0.0
2018-Feb-16 09:59N 30°11' W 093°19'0 0.0
2018-Feb-16 09:29N 30°11' W 093°19'0 0.0
2018-Feb-16 08:59N 30°11' W 093°19'0 0.0
2018-Feb-16 08:29N 30°11' W 093°19'0 0.0
2018-Feb-16 07:59N 30°11' W 093°19'0 0.0
2018-Feb-16 07:29N 30°11' W 093°19'0 0.0
2018-Feb-16 06:59N 30°11' W 093°19'0 0.0
2018-Feb-16 06:29N 30°11' W 093°19'0 0.0
2018-Feb-16 05:59N 30°11' W 093°19'0 0.0
2018-Feb-16 05:29N 30°11' W 093°19'0 0.0
2018-Feb-16 04:53N 30°11' W 093°19'0 0.0
2018-Feb-16 04:29N 30°11' W 093°19'0 0.0
2018-Feb-16 03:59N 30°11' W 093°19'0 0.0
2018-Feb-16 03:29N 30°11' W 093°19'0 0.0
2018-Feb-16 02:59N 30°11' W 093°19'0 0.0
2018-Feb-16 02:29N 30°11' W 093°19'0 0.0
2018-Feb-16 01:59N 30°11' W 093°19'0 0.0
2018-Feb-16 01:29N 30°11' W 093°19'0 0.0
2018-Feb-16 00:59N 30°11' W 093°19'0 0.0
2018-Feb-16 00:23N 30°11' W 093°19'0 0.0
2018-Feb-15 23:47N 30°11' W 093°19'0 0.0
2018-Feb-15 23:20N 30°11' W 093°19'0 0.0
2018-Feb-15 22:56N 30°11' W 093°19'0 0.0
2018-Feb-15 22:29N 30°11' W 093°19'0 0.0
2018-Feb-15 21:59N 30°11' W 093°19'0 0.0
2018-Feb-15 21:29N 30°11' W 093°19'0 0.0
2018-Feb-15 20:59N 30°11' W 093°19'0 0.0
2018-Feb-15 20:29N 30°11' W 093°19'0 0.0
2018-Feb-15 19:59N 30°11' W 093°19'0 0.0
2018-Feb-15 19:29N 30°11' W 093°19'0 0.0
2018-Feb-15 18:59N 30°11' W 093°19'0 0.0
2018-Feb-15 18:29N 30°11' W 093°19'0 0.0
2018-Feb-15 17:59N 30°11' W 093°19'0 0.0
2018-Feb-15 17:29N 30°11' W 093°19'0 0.0
2018-Feb-15 16:59N 30°11' W 093°19'0 0.0
2018-Feb-15 16:29N 30°11' W 093°19'0 0.0
2018-Feb-15 15:59N 30°11' W 093°19'0 0.0
2018-Feb-15 15:29N 30°11' W 093°19'0 0.0
2018-Feb-15 14:59N 30°11' W 093°19'0 0.0
2018-Feb-15 14:29N 30°11' W 093°19'0 0.0
2018-Feb-15 13:59N 30°11' W 093°19'0 0.0
2018-Feb-15 13:29N 30°11' W 093°19'0 0.0
2018-Feb-15 12:59N 30°11' W 093°19'0 0.0
2018-Feb-15 12:29N 30°11' W 093°19'0 0.0
2018-Feb-15 11:59N 30°11' W 093°19'0 0.0
2018-Feb-15 11:29N 30°11' W 093°19'0 0.0
2018-Feb-15 10:59N 30°11' W 093°19'0 0.0
2018-Feb-15 10:29N 30°11' W 093°19'0 0.0
2018-Feb-15 09:59N 30°11' W 093°19'0 0.0
2018-Feb-15 09:29N 30°11' W 093°19'0 0.0
2018-Feb-15 08:59N 30°11' W 093°19'0 0.0
2018-Feb-15 08:29N 30°11' W 093°19'0 0.0
2018-Feb-15 07:59N 30°11' W 093°19'0 0.0
2018-Feb-15 07:29N 30°11' W 093°19'0 0.0
2018-Feb-15 06:59N 30°11' W 093°19'0 0.0
2018-Feb-15 06:23N 30°11' W 093°19'0 0.0
2018-Feb-15 05:59N 30°11' W 093°19'0 0.0
2018-Feb-15 05:28N 30°11' W 093°19'0 0.0
2018-Feb-15 04:55N 30°11' W 093°19'0 0.0
2018-Feb-15 04:28N 30°11' W 093°19'0 0.0
2018-Feb-15 03:58N 30°11' W 093°19'0 0.0
2018-Feb-15 03:28N 30°11' W 093°19'0 0.0
2018-Feb-15 02:52N 30°11' W 093°19'0 0.0
2018-Feb-15 02:22N 30°11' W 093°19'0 0.0
2018-Feb-15 01:58N 30°11' W 093°19'0 0.0
2018-Feb-15 01:28N 30°11' W 093°19'0 0.0
2018-Feb-15 00:58N 30°11' W 093°19'0 0.0
2018-Feb-15 00:28N 30°11' W 093°19'0 0.0
2018-Feb-14 23:58N 30°11' W 093°19'0 0.0
2018-Feb-14 23:28N 30°11' W 093°19'0 0.0
2018-Feb-14 22:58N 30°11' W 093°19'0 0.0
2018-Feb-14 22:28N 30°11' W 093°19'0 0.0
2018-Feb-14 21:58N 30°11' W 093°19'0 0.0
2018-Feb-14 21:28N 30°11' W 093°19'0 0.0
2018-Feb-14 20:58N 30°11' W 093°19'0 0.0
2018-Feb-14 20:28N 30°11' W 093°19'0 0.0
2018-Feb-14 19:58N 30°11' W 093°19'0 0.0
2018-Feb-14 19:28N 30°11' W 093°19'0 0.0
2018-Feb-14 18:58N 30°11' W 093°19'0 0.0
2018-Feb-14 18:28N 30°11' W 093°19'0 0.0
2018-Feb-14 17:58N 30°11' W 093°19'0 0.0
2018-Feb-14 17:28N 30°11' W 093°19'0 0.0
2018-Feb-14 16:58N 30°11' W 093°19'0 0.0
2018-Feb-14 16:28N 30°11' W 093°19'0 0.0
2018-Feb-14 15:58N 30°11' W 093°19'0 0.0
2018-Feb-14 15:28N 30°11' W 093°19'0 0.0
2018-Feb-14 14:58N 30°11' W 093°19'0 0.0
2018-Feb-14 14:28N 30°11' W 093°19'0 0.0
2018-Feb-14 13:58N 30°11' W 093°19'0 0.0
2018-Feb-14 13:28N 30°11' W 093°19'0 0.0
2018-Feb-14 12:58N 30°11' W 093°19'0 0.0
2018-Feb-14 12:28N 30°11' W 093°19'0 0.0
2018-Feb-14 11:58N 30°11' W 093°19'0 0.0
2018-Feb-14 11:28N 30°11' W 093°19'0 0.0
2018-Feb-14 10:58N 30°11' W 093°19'0 0.0
2018-Feb-14 10:28N 30°11' W 093°19'0 0.0
2018-Feb-14 09:58N 30°11' W 093°19'0 0.0
2018-Feb-14 09:28N 30°11' W 093°19'0 0.0
2018-Feb-14 08:58N 30°11' W 093°19'0 0.0
2018-Feb-14 08:28N 30°11' W 093°19'0 0.0
2018-Feb-14 07:58N 30°11' W 093°19'0 0.0
2018-Feb-14 07:28N 30°11' W 093°19'0 0.0
2018-Feb-14 06:58N 30°11' W 093°19'0 0.0
2018-Feb-14 06:28N 30°11' W 093°19'0 0.0
2018-Feb-14 05:58N 30°11' W 093°19'0 0.0
2018-Feb-14 05:28N 30°11' W 093°19'0 0.0
2018-Feb-14 04:58N 30°11' W 093°19'0 0.0
2018-Feb-14 04:28N 30°11' W 093°19'0 0.0
2018-Feb-14 03:58N 30°11' W 093°19'0 0.0
2018-Feb-14 03:28N 30°11' W 093°19'0 0.0
2018-Feb-14 02:58N 30°11' W 093°19'0 0.0
2018-Feb-14 02:28N 30°11' W 093°19'0 0.0
2018-Feb-14 01:58N 30°11' W 093°19'0 0.0
2018-Feb-14 01:28N 30°11' W 093°19'0 0.2
2018-Feb-14 00:58N 30°11' W 093°19'2 3.3
2018-Feb-14 00:31N 30°09' W 093°20'3 5.4
2018-Feb-14 00:01N 30°07' W 093°20'3 6.1
2018-Feb-13 23:31N 30°04' W 093°21'1 2.2
2018-Feb-13 23:01N 30°04' W 093°22'0 0.7
2018-Feb-13 22:31N 30°04' W 093°22'1 1.0
2018-Feb-13 21:56N 30°04' W 093°21'0 1.0
2018-Feb-13 21:30N 30°04' W 093°22'0 0.0
2018-Feb-13 21:00N 30°04' W 093°22'0 0.0
2018-Feb-13 20:30N 30°04' W 093°22'0 0.0
2018-Feb-13 20:00N 30°04' W 093°22'0 0.0
2018-Feb-13 19:30N 30°04' W 093°22'0 0.0
2018-Feb-13 19:00N 30°04' W 093°22'0 0.2
2018-Feb-13 18:29N 30°04' W 093°22'0 0.0
2018-Feb-13 17:59N 30°04' W 093°22'0 0.0
2018-Feb-13 17:29N 30°04' W 093°22'0 0.0
2018-Feb-13 16:59N 30°04' W 093°22'0 0.0
2018-Feb-13 16:26N 30°04' W 093°22'0 0.0
2018-Feb-13 15:59N 30°04' W 093°22'0 0.0
2018-Feb-13 15:30N 30°04' W 093°22'0 0.0
2018-Feb-13 14:58N 30°04' W 093°22'0 0.1
2018-Feb-13 14:30N 30°04' W 093°22'1 1.1
2018-Feb-13 14:00N 30°04' W 093°23'3 5.7
2018-Feb-13 13:30N 30°04' W 093°26'3 5.1
2018-Feb-13 13:00N 30°04' W 093°29'3 5.6
2018-Feb-13 12:30N 30°04' W 093°32'3 5.5
2018-Feb-13 12:00N 30°04' W 093°35'3 5.8
2018-Feb-13 11:30N 30°04' W 093°39'3 5.9
2018-Feb-13 11:00N 30°03' W 093°42'3 5.4
2018-Feb-13 10:30N 30°02' W 093°44'3 6.0
2018-Feb-13 10:00N 29°60' W 093°47'3 6.7
2018-Feb-13 09:30N 29°58' W 093°51'3 5.9
2018-Feb-13 09:00N 29°56' W 093°52'4 7.2
2018-Feb-13 08:30N 29°53' W 093°55'3 7.0
2018-Feb-13 08:00N 29°50' W 093°57'2 4.6
2018-Feb-13 07:30N 29°49' W 093°59'2 4.8
2018-Feb-13 07:00N 29°47' W 094°01'2 4.9
2018-Feb-13 06:30N 29°46' W 094°03'2 4.1
2018-Feb-13 06:00N 29°44' W 094°05'2 4.8
2018-Feb-13 05:30N 29°43' W 094°07'2 3.9
2018-Feb-13 05:00N 29°42' W 094°09'2 3.7
2018-Feb-13 04:30N 29°41' W 094°11'2 4.2
2018-Feb-13 04:00N 29°40' W 094°13'3 5.0
2018-Feb-13 03:28N 29°39' W 094°16'2 3.3
2018-Feb-13 02:53N 29°38' W 094°18'3 4.4
2018-Feb-13 02:17N 29°37' W 094°21'1 4.1
2018-Feb-13 01:58N 29°36' W 094°22'2 3.2
2018-Feb-13 01:26N 29°36' W 094°24'1 3.1
2018-Feb-13 00:58N 29°35' W 094°25'25 3.0
2018-Feb-12 16:35N 29°32' W 094°54'1 6.7
2018-Feb-12 16:30N 29°32' W 094°54'3 6.3
2018-Feb-12 16:00N 29°35' W 094°56'3 6.5
2018-Feb-12 15:30N 29°38' W 094°58'4 7.4
2018-Feb-12 15:00N 29°41' W 094°59'5 6.5
2018-Feb-12 14:13N 29°44' W 095°04'3 0.3
2018-Feb-12 03:30N 29°47' W 095°04'0 0.0
2018-Feb-12 01:15N 29°47' W 095°04'0 0.0
2018-Feb-10 14:39N 29°47' W 095°04'  
Track history (hours):
 
Tides and Currents Weather Stations Pressure Air Temp Water Temp Dewpoint Dewpoint Depression Visibility Wind Speed Wind Dir Waves Ship Positions

Alva Dupre

Owner: Dupre Marine Transportation Inc, Houma, LA. More information available from US FCC via Universal Licensing System and Coast Guard Vessel Documentation Center.

Last reported at 2018-Feb-20 12:43 UTC. Time now 2018-Feb-21 19:36 UTC.
Position N 28°54' W 095°24'.

Length 23 m; draft 3.2 m.

Type: . MMSI: 367522540.

Date/timePositionNaut miles runAvg speedWind from/ knotsBaromVisibWave heightAir tempDewpointWater temp
2018-Feb-20 12:43N 28°54' W 095°24'35 2.1
2018-Feb-19 20:26N 29°17' W 094°54'10 4.6
2018-Feb-19 18:18N 29°23' W 094°46'1 1.1
2018-Feb-19 17:31N 29°24' W 094°45'0 2.9
2018-Feb-19 17:25N 29°24' W 094°45'1 2.6
2018-Feb-19 16:58N 29°25' W 094°44'2 4.6
2018-Feb-19 16:30N 29°26' W 094°42'1 2.7
2018-Feb-19 16:00N 29°27' W 094°41'2 3.9
2018-Feb-19 15:30N 29°28' W 094°39'2 3.9
2018-Feb-19 14:53N 29°29' W 094°36'2 3.9
2018-Feb-19 14:30N 29°30' W 094°35'2 3.8
2018-Feb-19 14:00N 29°30' W 094°33'2 3.9
2018-Feb-19 13:30N 29°31' W 094°31'2 0.7
2018-Feb-19 10:34N 29°32' W 094°29'0 0.0
2018-Feb-19 10:16N 29°32' W 094°29'0 0.0
2018-Feb-19 09:55N 29°32' W 094°29'0 0.0
2018-Feb-19 09:28N 29°32' W 094°29'0 0.0
2018-Feb-19 08:13N 29°32' W 094°29'0 0.0
2018-Feb-19 07:58N 29°32' W 094°29'0 0.0
2018-Feb-19 07:25N 29°32' W 094°29'0 0.0
2018-Feb-18 20:37N 29°33' W 094°28'1 4.0
2018-Feb-18 20:27N 29°33' W 094°28'3 3.6
2018-Feb-18 19:42N 29°34' W 094°25'1 4.6
2018-Feb-18 19:24N 29°35' W 094°25'2 3.3
2018-Feb-18 18:56N 29°36' W 094°23'1 2.1
2018-Feb-18 18:25N 29°36' W 094°22'0 0.0
2018-Feb-18 17:57N 29°36' W 094°22'0 0.1
2018-Feb-18 17:30N 29°36' W 094°22'0 0.0
2018-Feb-18 13:27N 29°36' W 094°22'0 0.0
2018-Feb-18 11:42N 29°36' W 094°22'0 0.0
2018-Feb-18 11:24N 29°36' W 094°22'0 0.0
2018-Feb-18 11:00N 29°36' W 094°22'0 0.0
2018-Feb-18 10:24N 29°36' W 094°22'0 0.0
2018-Feb-18 09:39N 29°36' W 094°22'0 0.0
2018-Feb-18 09:21N 29°36' W 094°22'0 0.0
2018-Feb-18 08:54N 29°36' W 094°22'0 0.0
2018-Feb-18 08:24N 29°36' W 094°22'0 0.1
2018-Feb-18 02:26N 29°36' W 094°22'0 0.0
2018-Feb-18 01:53N 29°36' W 094°22'0 0.0
2018-Feb-18 01:29N 29°36' W 094°22'0 0.0
2018-Feb-18 00:56N 29°36' W 094°22'0 0.0
2018-Feb-18 00:29N 29°36' W 094°22'0 0.1
2018-Feb-17 23:41N 29°36' W 094°22'0 0.1
2018-Feb-17 23:23N 29°36' W 094°22'0 0.1
2018-Feb-17 22:59N 29°36' W 094°22'0 0.0
2018-Feb-17 22:29N 29°36' W 094°22'0 0.4
2018-Feb-17 21:59N 29°37' W 094°22'2 4.1
2018-Feb-17 21:30N 29°37' W 094°20'2 4.9
2018-Feb-17 21:00N 29°39' W 094°17'2 4.8
2018-Feb-17 20:30N 29°40' W 094°15'2 4.7
2018-Feb-17 20:00N 29°41' W 094°12'2 3.7
2018-Feb-17 19:29N 29°41' W 094°10'1 2.5
2018-Feb-17 19:00N 29°42' W 094°09'2 4.1
2018-Feb-17 18:30N 29°43' W 094°07'2 4.3
2018-Feb-17 18:01N 29°44' W 094°05'2 4.3
2018-Feb-17 17:31N 29°46' W 094°03'2 4.4
2018-Feb-17 17:00N 29°47' W 094°01'2 4.4
2018-Feb-17 16:30N 29°49' W 093°60'1 2.7
2018-Feb-17 15:58N 29°49' W 093°58'0 0.0
2018-Feb-17 15:28N 29°49' W 093°58'0 0.0
2018-Feb-17 14:58N 29°49' W 093°58'0 0.0
2018-Feb-17 14:28N 29°49' W 093°58'0 0.0
2018-Feb-17 13:58N 29°49' W 093°58'0 0.0
2018-Feb-17 13:28N 29°49' W 093°58'0 0.0
2018-Feb-17 12:58N 29°49' W 093°58'0 0.0
2018-Feb-17 12:28N 29°49' W 093°58'0 0.0
2018-Feb-17 11:58N 29°49' W 093°58'0 0.0
2018-Feb-17 11:28N 29°49' W 093°58'0 0.0
2018-Feb-17 10:58N 29°49' W 093°58'0 0.0
2018-Feb-17 10:28N 29°49' W 093°58'0 0.0
2018-Feb-17 09:58N 29°49' W 093°58'0 0.0
2018-Feb-17 09:28N 29°49' W 093°58'0 0.0
2018-Feb-17 08:58N 29°49' W 093°58'0 0.0
2018-Feb-17 08:28N 29°49' W 093°58'0 0.0
2018-Feb-17 07:58N 29°49' W 093°58'0 0.0
2018-Feb-17 07:28N 29°49' W 093°58'0 0.0
2018-Feb-17 06:58N 29°49' W 093°58'0 0.0
2018-Feb-17 06:28N 29°49' W 093°58'0 0.0
2018-Feb-17 05:58N 29°49' W 093°58'0 0.0
2018-Feb-17 05:28N 29°49' W 093°58'0 0.0
2018-Feb-17 04:58N 29°49' W 093°58'0 0.0
2018-Feb-17 04:28N 29°49' W 093°58'0 0.0
2018-Feb-17 03:58N 29°49' W 093°58'0 0.0
2018-Feb-17 03:28N 29°49' W 093°58'0 0.0
2018-Feb-17 02:58N 29°49' W 093°58'0 0.0
2018-Feb-17 02:28N 29°49' W 093°58'0 0.0
2018-Feb-17 01:58N 29°49' W 093°58'0 0.7
2018-Feb-17 01:30N 29°49' W 093°58'2 4.5
2018-Feb-17 01:00N 29°51' W 093°57'3 6.5
2018-Feb-17 00:30N 29°54' W 093°54'3 6.3
2018-Feb-17 00:00N 29°56' W 093°52'2 4.3
2018-Feb-16 23:30N 29°58' W 093°51'3 5.8
2018-Feb-16 23:00N 29°59' W 093°48'3 5.6
2018-Feb-16 22:30N 30°01' W 093°45'3 5.5
2018-Feb-16 22:00N 30°03' W 093°43'3 5.1
2018-Feb-16 21:30N 30°04' W 093°40'3 5.4
2018-Feb-16 21:00N 30°04' W 093°37'2 4.7
2018-Feb-16 20:30N 30°04' W 093°34'2 4.4
2018-Feb-16 20:00N 30°04' W 093°32'2 4.4
2018-Feb-16 19:30N 30°04' W 093°29'2 4.5
2018-Feb-16 19:00N 30°04' W 093°27'2 4.3
2018-Feb-16 18:30N 30°04' W 093°24'2 4.1
2018-Feb-16 18:00N 30°04' W 093°22'1 1.5
2018-Feb-16 17:29N 30°04' W 093°21'0 0.7
2018-Feb-16 17:00N 30°04' W 093°21'2 3.3
2018-Feb-16 16:30N 30°05' W 093°20'2 5.0
2018-Feb-16 16:00N 30°08' W 093°20'3 4.7
2018-Feb-16 15:28N 30°10' W 093°19'0 0.6
2018-Feb-16 14:58N 30°11' W 093°19'0 0.0
2018-Feb-16 14:28N 30°11' W 093°19'0 0.0
2018-Feb-16 13:59N 30°11' W 093°19'0 0.0
2018-Feb-16 13:29N 30°11' W 093°19'0 0.0
2018-Feb-16 12:59N 30°11' W 093°19'0 0.0
2018-Feb-16 12:29N 30°11' W 093°19'0 0.0
2018-Feb-16 11:59N 30°11' W 093°19'0 0.0
2018-Feb-16 11:29N 30°11' W 093°19'0 0.0
2018-Feb-16 10:59N 30°11' W 093°19'0 0.0
2018-Feb-16 10:29N 30°11' W 093°19'0 0.0
2018-Feb-16 09:59N 30°11' W 093°19'0 0.0
2018-Feb-16 09:29N 30°11' W 093°19'0 0.0
2018-Feb-16 08:59N 30°11' W 093°19'0 0.0
2018-Feb-16 08:29N 30°11' W 093°19'0 0.0
2018-Feb-16 07:59N 30°11' W 093°19'0 0.0
2018-Feb-16 07:29N 30°11' W 093°19'0 0.0
2018-Feb-16 06:59N 30°11' W 093°19'0 0.0
2018-Feb-16 06:29N 30°11' W 093°19'0 0.0
2018-Feb-16 05:59N 30°11' W 093°19'0 0.0
2018-Feb-16 05:29N 30°11' W 093°19'0 0.0
2018-Feb-16 04:53N 30°11' W 093°19'0 0.0
2018-Feb-16 04:29N 30°11' W 093°19'0 0.0
2018-Feb-16 03:59N 30°11' W 093°19'0 0.0
2018-Feb-16 03:29N 30°11' W 093°19'0 0.0
2018-Feb-16 02:59N 30°11' W 093°19'0 0.0
2018-Feb-16 02:29N 30°11' W 093°19'0 0.0
2018-Feb-16 01:59N 30°11' W 093°19'0 0.0
2018-Feb-16 01:29N 30°11' W 093°19'0 0.0
2018-Feb-16 00:59N 30°11' W 093°19'0 0.0
2018-Feb-16 00:23N 30°11' W 093°19'0 0.0
2018-Feb-15 23:47N 30°11' W 093°19'0 0.0
2018-Feb-15 23:20N 30°11' W 093°19'0 0.0
2018-Feb-15 22:56N 30°11' W 093°19'0 0.0
2018-Feb-15 22:29N 30°11' W 093°19'0 0.0
2018-Feb-15 21:59N 30°11' W 093°19'0 0.0
2018-Feb-15 21:29N 30°11' W 093°19'0 0.0
2018-Feb-15 20:59N 30°11' W 093°19'0 0.0
2018-Feb-15 20:29N 30°11' W 093°19'0 0.0
2018-Feb-15 19:59N 30°11' W 093°19'0 0.0
2018-Feb-15 19:29N 30°11' W 093°19'0 0.0
2018-Feb-15 18:59N 30°11' W 093°19'0 0.0
2018-Feb-15 18:29N 30°11' W 093°19'0 0.0
2018-Feb-15 17:59N 30°11' W 093°19'0 0.0
2018-Feb-15 17:29N 30°11' W 093°19'0 0.0
2018-Feb-15 16:59N 30°11' W 093°19'0 0.0
2018-Feb-15 16:29N 30°11' W 093°19'0 0.0
2018-Feb-15 15:59N 30°11' W 093°19'0 0.0
2018-Feb-15 15:29N 30°11' W 093°19'0 0.0
2018-Feb-15 14:59N 30°11' W 093°19'0 0.0
2018-Feb-15 14:29N 30°11' W 093°19'0 0.0
2018-Feb-15 13:59N 30°11' W 093°19'0 0.0
2018-Feb-15 13:29N 30°11' W 093°19'0 0.0
2018-Feb-15 12:59N 30°11' W 093°19'0 0.0
2018-Feb-15 12:29N 30°11' W 093°19'0 0.0
2018-Feb-15 11:59N 30°11' W 093°19'0 0.0
2018-Feb-15 11:29N 30°11' W 093°19'0 0.0
2018-Feb-15 10:59N 30°11' W 093°19'0 0.0
2018-Feb-15 10:29N 30°11' W 093°19'0 0.0
2018-Feb-15 09:59N 30°11' W 093°19'0 0.0
2018-Feb-15 09:29N 30°11' W 093°19'0 0.0
2018-Feb-15 08:59N 30°11' W 093°19'0 0.0
2018-Feb-15 08:29N 30°11' W 093°19'0 0.0
2018-Feb-15 07:59N 30°11' W 093°19'0 0.0
2018-Feb-15 07:29N 30°11' W 093°19'0 0.0
2018-Feb-15 06:59N 30°11' W 093°19'0 0.0
2018-Feb-15 06:23N 30°11' W 093°19'0 0.0
2018-Feb-15 05:59N 30°11' W 093°19'0 0.0
2018-Feb-15 05:28N 30°11' W 093°19'0 0.0
2018-Feb-15 04:55N 30°11' W 093°19'0 0.0
2018-Feb-15 04:28N 30°11' W 093°19'0 0.0
2018-Feb-15 03:58N 30°11' W 093°19'0 0.0
2018-Feb-15 03:28N 30°11' W 093°19'0 0.0
2018-Feb-15 02:52N 30°11' W 093°19'0 0.0
2018-Feb-15 02:22N 30°11' W 093°19'0 0.0
2018-Feb-15 01:58N 30°11' W 093°19'0 0.0
2018-Feb-15 01:28N 30°11' W 093°19'0 0.0
2018-Feb-15 00:58N 30°11' W 093°19'0 0.0
2018-Feb-15 00:28N 30°11' W 093°19'0 0.0
2018-Feb-14 23:58N 30°11' W 093°19'0 0.0
2018-Feb-14 23:28N 30°11' W 093°19'0 0.0
2018-Feb-14 22:58N 30°11' W 093°19'0 0.0
2018-Feb-14 22:28N 30°11' W 093°19'0 0.0
2018-Feb-14 21:58N 30°11' W 093°19'0 0.0
2018-Feb-14 21:28N 30°11' W 093°19'0 0.0
2018-Feb-14 20:58N 30°11' W 093°19'0 0.0
2018-Feb-14 20:28N 30°11' W 093°19'0 0.0
2018-Feb-14 19:58N 30°11' W 093°19'0 0.0
2018-Feb-14 19:28N 30°11' W 093°19'0 0.0
2018-Feb-14 18:58N 30°11' W 093°19'0 0.0
2018-Feb-14 18:28N 30°11' W 093°19'0 0.0
2018-Feb-14 17:58N 30°11' W 093°19'0 0.0
2018-Feb-14 17:28N 30°11' W 093°19'0 0.0
2018-Feb-14 16:58N 30°11' W 093°19'0 0.0
2018-Feb-14 16:28N 30°11' W 093°19'0 0.0
2018-Feb-14 15:58N 30°11' W 093°19'0 0.0
2018-Feb-14 15:28N 30°11' W 093°19'0 0.0
2018-Feb-14 14:58N 30°11' W 093°19'0 0.0
2018-Feb-14 14:28N 30°11' W 093°19'0 0.0
2018-Feb-14 13:58N 30°11' W 093°19'0 0.0
2018-Feb-14 13:28N 30°11' W 093°19'0 0.0
2018-Feb-14 12:58N 30°11' W 093°19'0 0.0
2018-Feb-14 12:28N 30°11' W 093°19'0 0.0
2018-Feb-14 11:58N 30°11' W 093°19'0 0.0
2018-Feb-14 11:28N 30°11' W 093°19'0 0.0
2018-Feb-14 10:58N 30°11' W 093°19'0 0.0
2018-Feb-14 10:28N 30°11' W 093°19'0 0.0
2018-Feb-14 09:58N 30°11' W 093°19'0 0.0
2018-Feb-14 09:28N 30°11' W 093°19'0 0.0
2018-Feb-14 08:58N 30°11' W 093°19'0 0.0
2018-Feb-14 08:28N 30°11' W 093°19'0 0.0
2018-Feb-14 07:58N 30°11' W 093°19'0 0.0
2018-Feb-14 07:28N 30°11' W 093°19'0 0.0
2018-Feb-14 06:58N 30°11' W 093°19'0 0.0
2018-Feb-14 06:28N 30°11' W 093°19'0 0.0
2018-Feb-14 05:58N 30°11' W 093°19'0 0.0
2018-Feb-14 05:28N 30°11' W 093°19'0 0.0
2018-Feb-14 04:58N 30°11' W 093°19'0 0.0
2018-Feb-14 04:28N 30°11' W 093°19'0 0.0
2018-Feb-14 03:58N 30°11' W 093°19'0 0.0
2018-Feb-14 03:28N 30°11' W 093°19'0 0.0
2018-Feb-14 02:58N 30°11' W 093°19'0 0.0
2018-Feb-14 02:28N 30°11' W 093°19'0 0.0
2018-Feb-14 01:58N 30°11' W 093°19'0 0.0
2018-Feb-14 01:28N 30°11' W 093°19'0 0.2
2018-Feb-14 00:58N 30°11' W 093°19'2 3.3
2018-Feb-14 00:31N 30°09' W 093°20'3 5.4
2018-Feb-14 00:01N 30°07' W 093°20'3 6.1
2018-Feb-13 23:31N 30°04' W 093°21'1 2.2
2018-Feb-13 23:01N 30°04' W 093°22'0 0.7
2018-Feb-13 22:31N 30°04' W 093°22'1 1.0
2018-Feb-13 21:56N 30°04' W 093°21'0 1.0
2018-Feb-13 21:30N 30°04' W 093°22'0 0.0
2018-Feb-13 21:00N 30°04' W 093°22'0 0.0
2018-Feb-13 20:30N 30°04' W 093°22'0 0.0
2018-Feb-13 20:00N 30°04' W 093°22'0 0.0
2018-Feb-13 19:30N 30°04' W 093°22'0 0.0
2018-Feb-13 19:00N 30°04' W 093°22'0 0.2
2018-Feb-13 18:29N 30°04' W 093°22'0 0.0
2018-Feb-13 17:59N 30°04' W 093°22'0 0.0
2018-Feb-13 17:29N 30°04' W 093°22'0 0.0
2018-Feb-13 16:59N 30°04' W 093°22'0 0.0
2018-Feb-13 16:26N 30°04' W 093°22'0 0.0
2018-Feb-13 15:59N 30°04' W 093°22'0 0.0
2018-Feb-13 15:30N 30°04' W 093°22'0 0.0
2018-Feb-13 14:58N 30°04' W 093°22'0 0.1
2018-Feb-13 14:30N 30°04' W 093°22'1 1.1
2018-Feb-13 14:00N 30°04' W 093°23'3 5.7
2018-Feb-13 13:30N 30°04' W 093°26'3 5.1
2018-Feb-13 13:00N 30°04' W 093°29'3 5.6
2018-Feb-13 12:30N 30°04' W 093°32'3 5.5
2018-Feb-13 12:00N 30°04' W 093°35'3 5.8
2018-Feb-13 11:30N 30°04' W 093°39'3 5.9
2018-Feb-13 11:00N 30°03' W 093°42'3 5.4
2018-Feb-13 10:30N 30°02' W 093°44'3 6.0
2018-Feb-13 10:00N 29°60' W 093°47'3 6.7
2018-Feb-13 09:30N 29°58' W 093°51'3 5.9
2018-Feb-13 09:00N 29°56' W 093°52'4 7.2
2018-Feb-13 08:30N 29°53' W 093°55'3 7.0
2018-Feb-13 08:00N 29°50' W 093°57'2 4.6
2018-Feb-13 07:30N 29°49' W 093°59'2 4.8
2018-Feb-13 07:00N 29°47' W 094°01'2 4.9
2018-Feb-13 06:30N 29°46' W 094°03'2 4.1
2018-Feb-13 06:00N 29°44' W 094°05'2 4.8
2018-Feb-13 05:30N 29°43' W 094°07'2 3.9
2018-Feb-13 05:00N 29°42' W 094°09'2 3.7
2018-Feb-13 04:30N 29°41' W 094°11'2 4.2
2018-Feb-13 04:00N 29°40' W 094°13'3 5.0
2018-Feb-13 03:28N 29°39' W 094°16'2 3.3
2018-Feb-13 02:53N 29°38' W 094°18'3 4.4
2018-Feb-13 02:17N 29°37' W 094°21'1 4.1
2018-Feb-13 01:58N 29°36' W 094°22'2 3.2
2018-Feb-13 01:26N 29°36' W 094°24'1 3.1
2018-Feb-13 00:58N 29°35' W 094°25'25 3.0
2018-Feb-12 16:35N 29°32' W 094°54'1 6.7
2018-Feb-12 16:30N 29°32' W 094°54'3 6.3
2018-Feb-12 16:00N 29°35' W 094°56'3 6.5
2018-Feb-12 15:30N 29°38' W 094°58'4 7.4
2018-Feb-12 15:00N 29°41' W 094°59'5 6.5
2018-Feb-12 14:13N 29°44' W 095°04'3 0.3
2018-Feb-12 03:30N 29°47' W 095°04'0 0.0
2018-Feb-12 01:15N 29°47' W 095°04'0 0.0
2018-Feb-10 14:39N 29°47' W 095°04'  

Dump ship's entire track history